createdAt,value
2023-03-22T00:00:22.076Z,312.98
2023-03-22T00:04:24.756Z,314.70
2023-03-22T00:08:27.456Z,390.48
2023-03-22T00:12:30.462Z,374.05
2023-03-22T00:16:34.543Z,444.75
2023-03-22T00:24:42.285Z,418.00
2023-03-22T00:28:45.506Z,452.02
2023-03-22T00:32:49.548Z,326.83
2023-03-22T00:36:52.936Z,221.60
2023-03-22T00:40:55.666Z,394.02
2023-03-22T00:44:58.376Z,502.50
2023-03-22T00:49:02.446Z,410.30
2023-03-22T00:53:05.823Z,508.27
2023-03-22T00:57:08.829Z,425.80
2023-03-22T01:01:14.189Z,400.83
2023-03-22T01:05:22.048Z,435.08
2023-03-22T01:09:24.748Z,574.80
2023-03-22T01:13:27.566Z,514.63
2023-03-22T01:17:30.299Z,672.00
2023-03-22T01:21:34.431Z,615.55
2023-03-22T01:25:37.133Z,497.52
2023-03-22T01:29:39.835Z,578.97
2023-03-22T01:33:42.720Z,619.08
2023-03-22T01:37:46.747Z,632.80
2023-03-22T01:41:49.424Z,551.88
2023-03-22T01:45:53.540Z,576.47
2023-03-22T01:54:02.205Z,608.80
2023-03-22T01:58:05.838Z,532.40
2023-03-22T02:02:11.120Z,693.17
2023-03-22T02:06:13.881Z,439.73
2023-03-22T02:10:20.569Z,356.05
2023-03-22T02:14:44.321Z,314.60
2023-03-22T02:18:58.817Z,290.52
2023-03-22T02:23:20.294Z,443.08
2023-03-22T02:27:36.949Z,418.83
2023-03-22T02:32:07.420Z,373.48
2023-03-22T02:36:32.655Z,364.45
2023-03-22T02:40:41.503Z,384.98
2023-03-22T02:44:47.069Z,309.42
2023-03-22T02:48:55.568Z,290.85
2023-03-22T02:53:02.400Z,293.48
2023-03-22T02:57:10.832Z,246.38
2023-03-22T03:01:18.578Z,350.73
2023-03-22T03:05:21.799Z,250.60
2023-03-22T03:09:24.751Z,320.52
2023-03-22T03:13:28.931Z,305.98
2023-03-22T03:17:41.729Z,368.08
2023-03-22T03:21:47.391Z,344.83
2023-03-22T03:25:58.002Z,439.23
2023-03-22T03:30:06.686Z,461.80
2023-03-22T03:34:16.654Z,546.42
2023-03-22T03:38:21.128Z,754.50
2023-03-22T03:42:26.780Z,476.05
2023-03-22T03:46:30.814Z,634.33
2023-03-22T03:50:33.954Z,670.88
2023-03-22T03:54:36.638Z,816.42
2023-03-22T03:58:39.326Z,608.67
2023-03-22T04:02:43.582Z,577.33
2023-03-22T04:06:46.238Z,585.30
2023-03-22T04:10:50.968Z,682.72
2023-03-22T04:14:55.954Z,743.42
2023-03-22T04:19:00.621Z,513.42
2023-03-22T04:23:03.300Z,857.97
2023-03-22T04:27:05.988Z,854.10
2023-03-22T04:31:09.087Z,545.58
2023-03-22T04:35:13.153Z,614.25
2023-03-22T04:39:16.160Z,706.15
2023-03-22T04:43:18.929Z,708.17
2023-03-22T04:47:21.573Z,708.05
2023-03-22T04:51:26.691Z,784.65
2023-03-22T04:55:30.035Z,833.50
2023-03-22T04:59:32.831Z,678.92
2023-03-22T05:03:36.470Z,637.38
2023-03-22T05:07:40.545Z,510.75
2023-03-22T05:11:43.358Z,673.97
2023-03-22T05:15:47.343Z,477.88
2023-03-22T05:19:52.313Z,632.42
2023-03-22T05:23:57.839Z,569.58
2023-03-22T05:28:01.583Z,584.35
2023-03-22T05:32:04.429Z,518.92
2023-03-22T05:36:08.017Z,821.92
2023-03-22T05:40:12.693Z,608.45
2023-03-22T05:44:15.463Z,431.25
2023-03-22T05:48:18.543Z,578.53
2023-03-22T05:52:21.254Z,340.75
2023-03-22T05:56:25.311Z,515.38
2023-03-22T06:00:28.813Z,354.58
2023-03-22T06:04:31.494Z,497.38
2023-03-22T06:08:34.692Z,553.05
2023-03-22T06:12:39.264Z,537.13
2023-03-22T06:16:42.040Z,573.92
2023-03-22T06:20:44.941Z,419.75
2023-03-22T06:24:48.942Z,472.48
2023-03-22T06:28:52.938Z,282.02
2023-03-22T06:36:58.155Z,996.72
2023-03-22T06:41:00.861Z,433.63
2023-03-22T06:45:06.194Z,365.45
2023-03-22T06:49:08.835Z,284.73
2023-03-22T06:53:11.670Z,131.10
2023-03-22T06:57:14.411Z,248.60
2023-03-22T07:01:18.484Z,184.27
2023-03-22T07:05:21.815Z,302.02
2023-03-22T07:09:26.837Z,922.50
2023-03-22T07:13:29.696Z,894.63
2023-03-22T07:17:33.735Z,273.70
2023-03-22T07:21:36.466Z,400.83
2023-03-22T07:25:39.170Z,819.30
2023-03-22T07:29:42.269Z,933.65
2023-03-22T07:33:46.823Z,306.80
2023-03-22T07:37:49.994Z,498.73
2023-03-22T07:41:52.727Z,444.33
2023-03-22T07:45:55.583Z,615.40
2023-03-22T07:49:59.724Z,440.25
2023-03-22T07:54:02.573Z,730.58
2023-03-22T07:58:06.099Z,723.38
2023-03-22T08:02:11.087Z,900.72
2023-03-22T08:06:16.439Z,916.30
2023-03-22T08:10:19.728Z,619.83
2023-03-22T08:14:34.074Z,1169.05
2023-03-22T08:18:39.005Z,1058.35
2023-03-22T08:22:43.200Z,984.53
2023-03-22T08:26:49.692Z,701.58
2023-03-22T08:30:53.581Z,1328.57
2023-03-22T08:34:56.450Z,1394.88
2023-03-22T08:39:01.449Z,1159.57
2023-03-22T08:43:04.278Z,1179.53
2023-03-22T08:47:07.041Z,599.13
2023-03-22T08:51:10.674Z,1505.82
2023-03-22T08:59:20.500Z,1999.90
2023-03-22T09:03:24.055Z,1999.90
2023-03-22T09:11:31.348Z,1999.90
2023-03-22T09:15:34.101Z,1999.90
2023-03-22T09:19:37.034Z,1999.90
2023-03-22T09:23:40.240Z,1999.90
2023-03-22T09:27:44.420Z,1999.90
2023-03-22T09:31:48.938Z,1999.90
2023-03-22T09:35:51.661Z,1999.90
2023-03-22T09:39:54.628Z,1999.90
2023-03-22T09:44:01.768Z,1998.35
2023-03-22T09:48:07.196Z,1999.90
2023-03-22T09:52:14.301Z,1999.90
2023-03-22T09:56:23.170Z,1999.90
2023-03-22T10:00:34.866Z,1999.90
2023-03-22T10:04:48.024Z,1999.90
2023-03-22T10:08:58.525Z,1949.47
2023-03-22T10:13:07.743Z,1763.88
2023-03-22T10:17:16.633Z,1999.90
2023-03-22T10:21:20.361Z,1999.90
2023-03-22T10:25:32.835Z,1968.97
2023-03-22T10:29:39.057Z,1999.90
2023-03-22T10:33:50.472Z,1999.90
2023-03-22T10:37:54.136Z,1999.90
2023-03-22T10:41:58.467Z,1517.53
2023-03-22T10:46:03.828Z,1643.03
2023-03-22T10:50:13.738Z,1288.47
2023-03-22T10:54:18.160Z,898.78
2023-03-22T10:58:22.252Z,1999.90
2023-03-22T11:02:27.691Z,1715.38
2023-03-22T11:06:35.659Z,1999.90
2023-03-22T11:10:39.181Z,1284.97
2023-03-22T11:14:44.635Z,1999.90
2023-03-22T11:18:47.544Z,1728.18
2023-03-22T11:22:52.777Z,1999.90
2023-03-22T11:27:03.706Z,1999.90
2023-03-22T11:31:09.420Z,1999.90
2023-03-22T11:35:14.923Z,1851.88
2023-03-22T11:39:19.201Z,1999.90
2023-03-22T11:43:24.427Z,1999.90
2023-03-22T11:47:28.143Z,1999.90
2023-03-22T11:51:33.476Z,342.88
2023-03-22T11:55:37.966Z,1979.40
2023-03-22T11:59:43.680Z,1696.07
2023-03-22T12:03:51.142Z,1999.90
2023-03-22T12:07:57.931Z,1124.22
2023-03-22T12:12:03.060Z,1319.80
2023-03-22T12:16:07.708Z,1999.90
2023-03-22T12:20:18.757Z,644.55
2023-03-22T12:24:27.953Z,1721.50
2023-03-22T12:28:35.018Z,1999.90
2023-03-22T12:32:41.908Z,1539.93
2023-03-22T12:36:48.009Z,1920.53
2023-03-22T12:40:50.920Z,320.42
2023-03-22T12:45:05.094Z,1999.90
2023-03-22T12:49:17.591Z,909.88
2023-03-22T12:53:21.528Z,340.63
2023-03-22T12:57:24.237Z,1299.20
2023-03-22T13:01:34.677Z,990.40
2023-03-22T13:05:37.951Z,1756.93
2023-03-22T13:09:43.454Z,1706.93
2023-03-22T13:13:47.933Z,299.35
2023-03-22T13:17:52.000Z,1999.90
2023-03-22T13:22:15.026Z,1515.47
2023-03-22T13:26:18.183Z,1496.80
2023-03-22T13:30:26.239Z,1999.90
2023-03-22T13:34:38.243Z,1999.90
2023-03-22T13:38:42.778Z,962.28
2023-03-22T13:42:45.717Z,1657.75
2023-03-22T13:46:52.475Z,1999.90
2023-03-22T13:50:56.923Z,1590.50
2023-03-22T13:54:59.941Z,1999.90
2023-03-22T13:59:04.983Z,891.22
2023-03-22T14:03:14.950Z,645.80
2023-03-22T14:07:24.273Z,1999.90
2023-03-22T14:11:30.623Z,1034.22
2023-03-22T14:15:36.212Z,1658.10
2023-03-22T14:19:39.703Z,1696.18
